Time;durP1;ratioP1;P1;durP2;ratioP2;P2;SDS_P1;SDS_P2;PMS_P1;PMS_P2;Temp;Humidity;BMP_temperature;BMP_pressure;BME280_temperature;BME280_humidity;BME280_pressure;Samples;Min_cycle;Max_cycle;Signal;HPM_P1;HPM_P2
2022/01/07 00:01:53;;;;;;;5.30;3.10;;;-1.20;97.30;;;;;;5055077;28;20250;-83
2022/01/07 00:04:19;;;;;;;8.60;3.20;;;-1.20;97.30;;;;;;5054728;28;20755;-83
2022/01/07 00:06:45;;;;;;;4.50;2.60;;;-1.20;97.30;;;;;;5055419;28;20189;-83
2022/01/07 00:09:10;;;;;;;5.80;3.13;;;-1.30;97.30;;;;;;5054533;28;20202;-83
2022/01/07 00:11:36;;;;;;;6.60;3.33;;;-1.40;97.30;;;;;;5054122;28;20565;-83
2022/01/07 00:14:01;;;;;;;7.40;3.03;;;-1.50;97.30;;;;;;5053616;28;20176;-83
2022/01/07 00:16:27;;;;;;;4.33;2.50;;;-1.50;97.30;;;;;;5054271;28;20191;-83
2022/01/07 00:18:53;;;;;;;6.77;2.70;;;-1.50;97.30;;;;;;5054430;28;20207;-83
2022/01/07 00:21:20;;;;;;;5.87;2.77;;;-1.50;97.30;;;;;;5055384;28;20211;-83
2022/01/07 00:23:46;;;;;;;6.00;2.43;;;-1.40;97.30;;;;;;5054428;28;20176;-83
2022/01/07 00:26:11;;;;;;;5.70;3.10;;;-1.40;97.30;;;;;;5054431;28;20411;-83
2022/01/07 00:28:38;;;;;;;12.53;2.80;;;-1.40;97.30;;;;;;5054701;28;20259;-83
2022/01/07 00:31:03;;;;;;;4.90;2.60;;;-1.40;97.30;;;;;;5053862;28;20728;-83
2022/01/07 00:33:29;;;;;;;5.70;2.57;;;-1.30;97.30;;;;;;5054323;28;20446;-83
2022/01/07 00:35:59;;;;;;;7.03;3.13;;;-1.30;97.30;;;;;;5054836;28;20282;-83
2022/01/07 00:38:25;;;;;;;10.43;3.10;;;-1.30;97.30;;;;;;5054329;28;20196;-83
2022/01/07 00:40:51;;;;;;;5.03;2.97;;;-1.30;97.30;;;;;;5053630;28;20431;-83
2022/01/07 00:43:16;;;;;;;4.73;3.00;;;-1.30;97.30;;;;;;5054039;28;20924;-83
2022/01/07 00:45:42;;;;;;;3.37;2.50;;;-1.30;97.30;;;;;;5053971;28;20171;-83
2022/01/07 00:48:07;;;;;;;3.73;2.63;;;-1.30;97.30;;;;;;5052413;28;20176;-83
2022/01/07 00:50:33;;;;;;;4.90;2.80;;;-1.30;97.30;;;;;;5050579;28;20231;-80
2022/01/07 00:52:59;;;;;;;4.03;2.70;;;-1.30;97.30;;;;;;5050237;28;20180;-80
2022/01/07 00:55:32;;;;;;;7.37;3.57;;;-1.40;97.30;;;;;;5049991;28;20426;-80
2022/01/07 00:58:19;;;;;;;8.57;3.20;;;-1.50;97.30;;;;;;5049433;28;20454;-80
2022/01/07 01:00:50;;;;;;;4.07;2.30;;;-1.50;97.30;;;;;;5041483;28;20591;-81
2022/01/07 01:03:15;;;;;;;4.13;2.20;;;-1.40;97.30;;;;;;5050583;28;21031;-79
2022/01/07 01:05:42;;;;;;;4.13;2.40;;;-1.30;97.30;;;;;;5049630;28;20414;-78
2022/01/07 01:08:08;;;;;;;8.53;2.37;;;-1.30;97.30;;;;;;5049029;28;20668;-78
2022/01/07 01:10:34;;;;;;;7.83;2.90;;;-1.20;97.30;;;;;;5051374;28;20418;-84
2022/01/07 01:12:59;;;;;;;4.33;2.40;;;-1.20;97.30;;;;;;5054171;28;20254;-79
2022/01/07 01:15:27;;;;;;;5.50;2.90;;;-1.20;97.30;;;;;;5050095;28;20229;-80
2022/01/07 01:17:55;;;;;;;4.20;2.50;;;-1.20;97.30;;;;;;5050863;28;20213;-83
2022/01/07 01:20:21;;;;;;;3.87;2.50;;;-1.20;97.30;;;;;;5053963;28;20414;-80
2022/01/07 01:22:47;;;;;;;7.83;2.70;;;-1.20;97.30;;;;;;5050265;28;20414;-81
2022/01/07 01:25:13;;;;;;;7.00;2.93;;;-1.20;97.30;;;;;;5051861;28;20187;-81
2022/01/07 01:27:42;;;;;;;17.03;3.13;;;-1.20;97.30;;;;;;5051793;28;20414;-83
2022/01/07 01:30:11;;;;;;;3.27;2.50;;;-1.20;97.30;;;;;;5053082;28;20187;-84
2022/01/07 01:32:37;;;;;;;4.43;2.43;;;-1.20;97.30;;;;;;5052691;28;20967;-83
2022/01/07 01:35:05;;;;;;;3.40;2.50;;;-1.10;97.30;;;;;;5053135;28;20419;-83
2022/01/07 01:37:30;;;;;;;9.50;2.63;;;-1.10;97.30;;;;;;5052164;28;20469;-83
2022/01/07 01:39:57;;;;;;;6.33;2.90;;;-1.00;97.30;;;;;;5051912;28;20941;-84
2022/01/07 01:42:23;;;;;;;4.93;2.30;;;-1.00;97.30;;;;;;5052728;28;20196;-83
2022/01/07 01:44:48;;;;;;;3.50;2.57;;;-1.00;97.30;;;;;;5051431;28;20411;-79
2022/01/07 01:47:14;;;;;;;3.77;2.17;;;-1.00;97.30;;;;;;5050791;28;20539;-79
2022/01/07 01:49:40;;;;;;;5.70;1.90;;;-0.90;97.30;;;;;;5050686;28;20361;-79
2022/01/07 01:52:06;;;;;;;6.60;2.43;;;-0.90;97.30;;;;;;5050696;28;20192;-79
2022/01/07 01:54:32;;;;;;;5.83;2.43;;;-0.80;97.30;;;;;;5053699;28;20645;-79
2022/01/07 01:56:58;;;;;;;5.70;2.63;;;-0.80;97.30;;;;;;5054429;28;20418;-79
2022/01/07 01:59:26;;;;;;;2.50;2.13;;;-0.80;97.30;;;;;;5054920;28;20348;-79
2022/01/07 02:01:52;;;;;;;4.80;2.17;;;-0.80;97.30;;;;;;5054984;28;20278;-78
2022/01/07 02:04:18;;;;;;;4.00;2.37;;;-0.70;97.30;;;;;;5052559;28;20414;-78
2022/01/07 02:06:43;;;;;;;5.27;2.23;;;-0.70;97.30;;;;;;5054173;28;20410;-79
2022/01/07 02:09:09;;;;;;;4.83;2.50;;;-0.70;97.30;;;;;;5052179;28;20180;-78
2022/01/07 02:11:35;;;;;;;9.23;2.90;;;-0.70;97.30;;;;;;5052992;28;20315;-81
2022/01/07 02:14:00;;;;;;;4.13;2.30;;;-0.60;97.30;;;;;;5053363;28;20216;-81
2022/01/07 02:16:27;;;;;;;5.70;2.73;;;-0.60;97.30;;;;;;5055060;28;20183;-84
2022/01/07 02:18:53;;;;;;;9.87;2.70;;;-0.60;97.30;;;;;;5053318;28;20200;-79
2022/01/07 02:21:19;;;;;;;4.73;2.97;;;-0.60;97.30;;;;;;5053325;28;20444;-79
2022/01/07 02:23:45;;;;;;;6.93;2.40;;;-0.60;97.30;;;;;;5052695;28;20422;-78
2022/01/07 02:26:12;;;;;;;5.33;2.10;;;-0.60;97.30;;;;;;5051548;28;20908;-78
2022/01/07 02:28:39;;;;;;;5.53;2.47;;;-0.60;97.30;;;;;;5051764;28;20715;-78
2022/01/07 02:31:06;;;;;;;3.53;2.80;;;-0.60;97.30;;;;;;5052534;28;20540;-83
2022/01/07 02:33:31;;;;;;;4.23;2.90;;;-0.60;97.30;;;;;;5054565;28;20449;-82
2022/01/07 02:35:57;;;;;;;4.60;2.87;;;-0.60;97.30;;;;;;5033419;28;20419;-81
2022/01/07 02:38:23;;;;;;;3.67;2.80;;;-0.60;97.30;;;;;;5032935;28;20212;-81
2022/01/07 02:40:48;;;;;;;5.07;2.57;;;-0.60;97.30;;;;;;5033006;28;20469;-81
2022/01/07 02:43:14;;;;;;;5.93;2.87;;;-0.60;97.30;;;;;;5035222;28;20310;-81
2022/01/07 02:45:40;;;;;;;4.83;2.23;;;-0.50;97.30;;;;;;5036040;28;20180;-81
2022/01/07 02:48:06;;;;;;;5.40;2.30;;;-0.50;97.30;;;;;;5035193;28;20184;-81
2022/01/07 02:50:34;;;;;;;8.90;3.30;;;-0.50;97.30;;;;;;5034387;28;20728;-80
2022/01/07 02:53:00;;;;;;;5.57;2.90;;;-0.50;97.30;;;;;;5034219;28;20212;-79
2022/01/07 02:55:27;;;;;;;6.70;2.80;;;-0.50;97.30;;;;;;5033818;28;20426;-79
2022/01/07 02:57:53;;;;;;;4.87;2.37;;;-0.60;97.30;;;;;;5032794;28;20462;-80
2022/01/07 03:00:19;;;;;;;6.80;2.20;;;-0.60;97.30;;;;;;5033046;28;20430;-81
2022/01/07 03:02:46;;;;;;;14.80;3.43;;;-0.70;97.30;;;;;;5034896;28;20495;-80
2022/01/07 03:05:12;;;;;;;5.37;2.73;;;-0.70;97.30;;;;;;5033170;28;20407;-81
2022/01/07 03:07:39;;;;;;;8.87;3.50;;;-0.70;97.30;;;;;;5032926;28;20664;-80
2022/01/07 03:10:06;;;;;;;8.70;3.17;;;-0.70;97.30;;;;;;5032304;28;20860;-81
2022/01/07 03:12:32;;;;;;;4.80;2.60;;;-0.80;97.30;;;;;;5031715;28;20468;-81
2022/01/07 03:14:57;;;;;;;4.63;3.17;;;-0.80;97.30;;;;;;5031934;28;20978;-81
2022/01/07 03:17:23;;;;;;;4.40;3.37;;;-0.80;97.30;;;;;;5047518;22;20663;-83
2022/01/07 03:19:49;;;;;;;7.13;3.03;;;-0.80;97.30;;;;;;5042769;28;20612;-83
2022/01/07 03:22:14;;;;;;;6.93;2.80;;;-0.80;97.30;;;;;;5034741;28;20204;-84
2022/01/07 03:24:40;;;;;;;4.20;2.53;;;-0.90;97.30;;;;;;5034524;28;20660;-83
2022/01/07 03:27:08;;;;;;;5.37;2.70;;;-0.90;97.30;;;;;;5035174;28;20207;-84
2022/01/07 03:29:34;;;;;;;8.50;2.90;;;-0.90;97.30;;;;;;5034658;28;20177;-84
2022/01/07 03:31:59;;;;;;;10.10;2.87;;;-0.90;97.30;;;;;;5035067;28;20431;-84
2022/01/07 03:34:25;;;;;;;6.93;3.00;;;-0.90;97.30;;;;;;5036040;28;20931;-84
2022/01/07 03:36:51;;;;;;;14.57;3.93;;;-0.90;97.30;;;;;;5035010;28;20189;-84
2022/01/07 03:39:16;;;;;;;5.37;2.57;;;-0.90;97.30;;;;;;5035294;28;20736;-84
2022/01/07 03:41:42;;;;;;;3.23;2.33;;;-0.90;97.30;;;;;;5034790;28;20200;-83
2022/01/07 03:44:08;;;;;;;11.57;4.37;;;-0.90;97.30;;;;;;5036167;28;20222;-83
2022/01/07 03:46:33;;;;;;;7.60;3.23;;;-0.90;97.30;;;;;;5035468;28;20415;-84
2022/01/07 03:48:59;;;;;;;6.57;3.27;;;-1.00;97.30;;;;;;5034509;28;20614;-84
2022/01/07 03:51:25;;;;;;;10.50;3.10;;;-1.00;97.30;;;;;;5034943;28;20357;-83
2022/01/07 03:53:50;;;;;;;5.30;3.40;;;-1.00;97.30;;;;;;5034701;28;20177;-83
2022/01/07 03:56:18;;;;;;;4.87;2.70;;;-1.00;97.30;;;;;;5034222;28;20291;-83
2022/01/07 03:58:45;;;;;;;4.87;3.17;;;-1.10;97.30;;;;;;5034193;28;20215;-83
2022/01/07 04:01:10;;;;;;;3.53;2.70;;;-1.10;97.30;;;;;;5034330;28;20798;-83
2022/01/07 04:03:36;;;;;;;4.10;2.40;;;-1.10;97.30;;;;;;5034750;28;20415;-84
2022/01/07 04:06:02;;;;;;;5.53;2.93;;;-1.20;97.30;;;;;;5034386;28;20639;-83
2022/01/07 04:08:27;;;;;;;12.93;3.10;;;-1.20;97.30;;;;;;5034498;28;20187;-84
2022/01/07 04:10:53;;;;;;;11.13;3.07;;;-1.20;97.30;;;;;;5034534;28;20208;-83
2022/01/07 04:13:18;;;;;;;7.60;2.93;;;-1.20;97.30;;;;;;5034124;28;20184;-82
2022/01/07 04:15:44;;;;;;;15.43;3.27;;;-1.10;97.30;;;;;;5033724;28;20188;-83
2022/01/07 04:18:10;;;;;;;4.50;2.83;;;-1.10;97.30;;;;;;5034215;28;20332;-83
2022/01/07 04:20:36;;;;;;;6.70;2.93;;;-1.10;97.30;;;;;;5033949;28;20269;-84
2022/01/07 04:23:03;;;;;;;4.20;3.00;;;-1.10;97.30;;;;;;5033593;28;20184;-83
2022/01/07 04:25:29;;;;;;;9.77;3.60;;;-1.10;97.30;;;;;;5033890;28;20920;-83
2022/01/07 04:27:59;;;;;;;6.97;2.80;;;-1.10;97.30;;;;;;5034142;28;20430;-83
2022/01/07 04:30:27;;;;;;;10.40;3.13;;;-1.10;97.30;;;;;;5034156;28;20426;-83
2022/01/07 04:32:54;;;;;;;6.70;3.13;;;-1.10;97.30;;;;;;5034001;28;20418;-83
2022/01/07 04:35:20;;;;;;;9.50;3.27;;;-1.00;97.30;;;;;;5034206;28;20427;-84
2022/01/07 04:37:46;;;;;;;11.63;3.77;;;-1.00;97.30;;;;;;5034189;28;20838;-83
2022/01/07 04:40:14;;;;;;;6.77;2.83;;;-1.00;97.30;;;;;;5033717;28;20502;-84
2022/01/07 04:42:40;;;;;;;5.57;2.97;;;-1.00;97.30;;;;;;5034047;28;20642;-83
2022/01/07 04:45:06;;;;;;;4.90;2.90;;;-0.90;97.30;;;;;;5031094;28;20452;-84
2022/01/07 04:47:35;;;;;;;7.80;3.33;;;-0.90;97.30;;;;;;5029356;28;20204;-83
2022/01/07 04:50:01;;;;;;;8.77;3.87;;;-0.90;97.30;;;;;;5034445;28;20458;-83
2022/01/07 04:52:27;;;;;;;9.37;4.17;;;-0.80;97.30;;;;;;5030688;28;20896;-83
2022/01/07 04:54:52;;;;;;;6.93;2.97;;;-0.80;97.30;;;;;;5030573;28;20451;-83
2022/01/07 04:57:18;;;;;;;19.43;3.67;;;-0.80;97.30;;;;;;5032245;28;20663;-83
2022/01/07 04:59:43;;;;;;;9.93;3.40;;;-0.80;97.30;;;;;;5032558;28;20169;-83
2022/01/07 05:02:09;;;;;;;6.90;2.70;;;-0.80;97.30;;;;;;5018017;28;20197;-83
2022/01/07 05:04:35;;;;;;;6.83;3.33;;;-0.80;97.30;;;;;;5032465;28;20177;-83
2022/01/07 05:07:00;;;;;;;5.00;2.97;;;-0.70;97.30;;;;;;5033254;28;20181;-84
2022/01/07 05:09:26;;;;;;;7.97;2.80;;;-0.70;97.30;;;;;;5018438;28;20188;-83
2022/01/07 05:11:53;;;;;;;10.40;3.40;;;-0.70;97.30;;;;;;5034145;28;20211;-84
2022/01/07 05:14:19;;;;;;;8.73;3.10;;;-0.70;97.30;;;;;;5033950;28;20181;-84
2022/01/07 05:16:45;;;;;;;8.10;3.20;;;-0.70;97.30;;;;;;5033914;28;20424;-83
2022/01/07 05:19:13;;;;;;;10.37;3.50;;;-0.70;97.30;;;;;;5033914;28;20543;-84
2022/01/07 05:21:39;;;;;;;5.80;2.60;;;-0.70;97.30;;;;;;5033061;28;20458;-83
2022/01/07 05:24:05;;;;;;;7.50;3.00;;;-0.70;97.30;;;;;;5031580;28;20420;-84
2022/01/07 05:26:31;;;;;;;8.17;2.70;;;-0.60;97.30;;;;;;5032224;28;20447;-84
2022/01/07 05:28:56;;;;;;;6.00;3.30;;;-0.60;97.30;;;;;;5035564;28;20420;-83
2022/01/07 05:31:23;;;;;;;8.23;3.03;;;-0.60;97.30;;;;;;5036456;28;20219;-83
2022/01/07 05:33:54;;;;;;;7.70;3.03;;;-0.60;97.30;;;;;;5037996;28;20215;-83
2022/01/07 05:36:20;;;;;;;12.70;3.60;;;-0.50;97.30;;;;;;5037827;28;20473;-84
2022/01/07 05:38:46;;;;;;;3.80;2.53;;;-0.50;97.30;;;;;;5037896;28;20585;-83
2022/01/07 05:41:13;;;;;;;6.67;2.67;;;-0.50;97.30;;;;;;5038572;28;20465;-83
2022/01/07 05:43:39;;;;;;;7.60;2.87;;;-0.40;97.30;;;;;;5041207;28;20475;-83
2022/01/07 05:46:04;;;;;;;13.10;4.03;;;-0.30;97.30;;;;;;5039455;28;20450;-83
2022/01/07 05:48:30;;;;;;;14.17;3.07;;;-0.30;97.30;;;;;;5042725;28;20580;-83
2022/01/07 05:50:56;;;;;;;7.30;2.90;;;-0.20;97.30;;;;;;5039609;28;20279;-83
2022/01/07 05:53:21;;;;;;;6.90;3.10;;;-0.10;97.30;;;;;;5038188;28;20469;-83
2022/01/07 05:55:47;;;;;;;9.40;3.60;;;-0.10;97.30;;;;;;5039557;28;20259;-82
2022/01/07 05:58:12;;;;;;;7.37;3.13;;;0.00;97.30;;;;;;5039316;28;20212;-84
2022/01/07 06:00:38;;;;;;;7.67;3.47;;;0.10;97.30;;;;;;5038679;28;20193;-83
2022/01/07 06:03:04;;;;;;;13.57;3.67;;;0.10;97.30;;;;;;5041089;28;20639;-83
2022/01/07 06:05:29;;;;;;;4.87;3.10;;;0.20;97.30;;;;;;5041328;28;20188;-82
2022/01/07 06:07:55;;;;;;;26.90;4.20;;;0.20;97.30;;;;;;5042116;28;20188;-83
2022/01/07 06:10:20;;;;;;;7.60;3.13;;;0.30;97.30;;;;;;5039899;28;20180;-84
2022/01/07 06:12:46;;;;;;;11.47;4.27;;;0.40;97.30;;;;;;5043694;28;20188;-83
2022/01/07 06:15:11;;;;;;;10.50;3.43;;;0.40;97.30;;;;;;5042785;28;20191;-83
2022/01/07 06:17:37;;;;;;;13.03;2.90;;;0.50;97.30;;;;;;5043379;28;20232;-83
2022/01/07 06:20:05;;;;;;;11.20;4.37;;;0.50;97.30;;;;;;5041793;28;20200;-83
2022/01/07 06:22:30;;;;;;;11.60;3.83;;;0.60;97.30;;;;;;5042911;28;20713;-83
2022/01/07 06:24:56;;;;;;;9.03;4.20;;;0.60;97.30;;;;;;5043090;28;20494;-84
2022/01/07 06:27:21;;;;;;;11.33;4.40;;;0.60;97.30;;;;;;5042382;28;20176;-83
2022/01/07 06:29:47;;;;;;;12.70;4.03;;;0.60;97.30;;;;;;5042450;28;20165;-82
2022/01/07 06:32:13;;;;;;;8.87;3.80;;;0.70;97.30;;;;;;5044106;28;20645;-83
2022/01/07 06:34:38;;;;;;;12.87;4.30;;;0.70;97.30;;;;;;5042635;28;20196;-83
2022/01/07 06:37:05;;;;;;;10.50;4.00;;;0.70;97.30;;;;;;5042497;28;20173;-83
2022/01/07 06:39:32;;;;;;;11.70;3.93;;;0.70;97.30;;;;;;5040993;28;20204;-83
2022/01/07 06:41:59;;;;;;;11.40;3.80;;;0.70;97.30;;;;;;5041662;28;20506;-84
2022/01/07 06:44:26;;;;;;;8.47;3.20;;;0.80;97.30;;;;;;5041527;28;20416;-84
2022/01/07 06:46:51;;;;;;;12.50;4.07;;;0.80;97.30;;;;;;5040625;28;20423;-82
2022/01/07 06:49:17;;;;;;;8.10;3.83;;;0.80;97.30;;;;;;5042437;28;20415;-83
2022/01/07 06:51:43;;;;;;;13.40;3.90;;;0.80;97.30;;;;;;5041960;28;20257;-83
2022/01/07 06:54:11;;;;;;;8.20;3.90;;;0.80;97.30;;;;;;5041433;28;20181;-83
2022/01/07 06:56:42;;;;;;;6.90;3.80;;;0.90;97.30;;;;;;5041843;28;20423;-82
2022/01/07 06:59:07;;;;;;;5.87;3.30;;;0.90;97.30;;;;;;5041025;28;20459;-83
2022/01/07 07:01:33;;;;;;;10.53;4.03;;;0.90;97.30;;;;;;5041560;28;20439;-83
2022/01/07 07:03:59;;;;;;;13.57;4.17;;;1.00;97.30;;;;;;5041712;28;20240;-83
2022/01/07 07:06:25;;;;;;;8.10;3.87;;;1.00;97.30;;;;;;5043017;28;20172;-84
2022/01/07 07:08:50;;;;;;;11.20;3.63;;;1.00;97.30;;;;;;5041493;28;20195;-84
2022/01/07 07:11:16;;;;;;;18.93;4.53;;;1.00;97.30;;;;;;5041426;28;20208;-83
2022/01/07 07:13:41;;;;;;;10.00;3.60;;;1.10;97.30;;;;;;5039587;28;20176;-84
2022/01/07 07:16:07;;;;;;;8.83;4.10;;;1.10;97.30;;;;;;5040901;28;20226;-83
2022/01/07 07:18:32;;;;;;;10.20;4.03;;;1.10;97.30;;;;;;5040675;28;20254;-82
2022/01/07 07:20:58;;;;;;;17.33;4.63;;;1.10;97.30;;;;;;5040824;28;20711;-84
2022/01/07 07:23:24;;;;;;;12.30;3.67;;;1.10;97.30;;;;;;5040242;28;20252;-83
2022/01/07 07:25:51;;;;;;;8.80;4.43;;;1.10;97.30;;;;;;5040262;28;20247;-83
2022/01/07 07:28:17;;;;;;;6.57;3.90;;;1.20;97.30;;;;;;5040535;28;20432;-83
2022/01/07 07:30:43;;;;;;;9.73;3.80;;;1.20;97.30;;;;;;5040014;28;20966;-84
2022/01/07 07:38:35;;;;;;;9.80;3.60;;;1.30;97.30;;;;;;5042190;28;20469;-83
2022/01/07 07:41:01;;;;;;;6.23;3.80;;;1.30;97.30;;;;;;5041143;28;20489;-84
2022/01/07 07:43:26;;;;;;;18.53;3.57;;;1.30;97.30;;;;;;5040180;28;20423;-83
2022/01/07 07:45:52;;;;;;;9.30;3.37;;;1.30;97.30;;;;;;5038646;28;20616;-83
2022/01/07 07:48:18;;;;;;;8.27;3.73;;;1.30;97.30;;;;;;5039574;28;20182;-83
2022/01/07 07:50:44;;;;;;;12.73;4.00;;;1.20;97.30;;;;;;5039845;28;20287;-83
2022/01/07 07:53:10;;;;;;;7.03;3.40;;;1.20;97.30;;;;;;5039788;28;20447;-83
2022/01/07 07:55:35;;;;;;;7.53;3.80;;;1.20;97.30;;;;;;5040670;28;20278;-82
2022/01/07 07:58:01;;;;;;;11.00;4.10;;;1.10;97.30;;;;;;5040021;28;20220;-82
2022/01/07 08:00:27;;;;;;;5.23;2.93;;;1.10;97.30;;;;;;5039917;28;20173;-83
2022/01/07 08:02:52;;;;;;;11.63;5.83;;;1.10;97.30;;;;;;5040051;28;20191;-82
2022/01/07 08:05:18;;;;;;;11.70;4.50;;;1.10;97.30;;;;;;5041026;28;20553;-84
2022/01/07 08:07:44;;;;;;;9.40;3.83;;;1.10;97.30;;;;;;5040896;28;20173;-83
2022/01/07 08:10:09;;;;;;;11.60;4.73;;;1.20;97.30;;;;;;5040146;28;20349;-83
2022/01/07 08:13:14;;;;;;;13.03;4.33;;;1.20;97.30;;;;;;5040023;28;20196;-83
2022/01/07 08:15:58;;;;;;;14.90;3.97;;;1.20;97.30;;;;;;5041252;28;20657;-82
2022/01/07 08:18:28;;;;;;;7.53;3.43;;;1.20;97.30;;;;;;5036118;28;20510;-83
2022/01/07 08:20:58;;;;;;;21.47;3.90;;;1.30;97.30;;;;;;5038990;28;20539;-84
2022/01/07 08:23:24;;;;;;;12.70;3.87;;;1.30;97.30;;;;;;5040094;28;20501;-82
2022/01/07 08:25:50;;;;;;;7.53;3.83;;;1.30;97.30;;;;;;5040488;28;20431;-83
2022/01/07 08:28:18;;;;;;;12.63;4.40;;;1.30;97.30;;;;;;5040101;28;20430;-84
2022/01/07 08:36:31;;;;;;;8.47;3.70;;;1.40;97.30;;;;;;5037691;28;20486;-83
2022/01/07 08:38:58;;;;;;;9.17;3.33;;;1.40;97.30;;;;;;5007857;28;20836;-82
2022/01/07 08:41:27;;;;;;;6.97;3.20;;;1.40;97.30;;;;;;5021653;28;20499;-83
2022/01/07 08:43:52;;;;;;;11.83;3.63;;;1.40;97.30;;;;;;5019727;28;20936;-82
2022/01/07 08:46:18;;;;;;;12.27;3.73;;;1.40;97.30;;;;;;5019939;28;20484;-83
2022/01/07 08:48:44;;;;;;;12.53;4.17;;;1.40;97.30;;;;;;5018862;28;20665;-83
2022/01/07 08:51:10;;;;;;;11.87;4.20;;;1.40;97.30;;;;;;5031692;28;20196;-84
2022/01/07 08:53:37;;;;;;;12.87;5.07;;;1.50;97.30;;;;;;5041027;28;20256;-84
2022/01/07 08:56:03;;;;;;;8.63;3.87;;;1.50;97.30;;;;;;5039046;28;21165;-82
2022/01/07 08:58:29;;;;;;;15.47;4.70;;;1.50;97.30;;;;;;5040267;28;21014;-83
2022/01/07 09:00:56;;;;;;;9.40;4.67;;;1.50;97.30;;;;;;5039965;28;20439;-83
2022/01/07 09:03:22;;;;;;;11.00;3.87;;;1.50;97.30;;;;;;5042304;28;20375;-83
2022/01/07 09:05:48;;;;;;;12.47;4.20;;;1.50;97.30;;;;;;5045380;28;20409;-84
2022/01/07 09:08:13;;;;;;;14.03;4.27;;;1.50;97.30;;;;;;5044266;28;20411;-83
2022/01/07 09:10:40;;;;;;;9.93;3.53;;;1.60;97.30;;;;;;5043074;28;20235;-83
2022/01/07 09:13:06;;;;;;;8.53;3.57;;;1.60;97.30;;;;;;5042995;28;20267;-83
2022/01/07 09:15:32;;;;;;;8.40;4.10;;;1.60;97.30;;;;;;5043333;28;20498;-83
2022/01/07 09:17:57;;;;;;;13.87;4.07;;;1.60;97.30;;;;;;5041496;28;20506;-83
2022/01/07 09:20:23;;;;;;;8.63;3.57;;;1.70;97.30;;;;;;5059123;22;20241;-90
2022/01/07 09:22:53;;;;;;;7.63;3.40;;;1.70;97.30;;;;;;4993897;28;20184;-91
2022/01/07 09:25:22;;;;;;;9.97;3.43;;;1.80;97.30;;;;;;4995489;28;20174;-90
2022/01/07 09:27:50;;;;;;;17.40;4.67;;;1.80;97.30;;;;;;4996761;28;20463;-91
2022/01/07 09:30:32;;;;;;;;;;;;;;;;;;;;;
2022/01/07 09:33:02;;;;;;;15.27;3.37;;;2.00;97.30;;;;;;4977124;28;20448;-91
2022/01/07 09:35:50;;;;;;;8.37;3.50;;;2.10;97.30;;;;;;4996168;28;20589;-89
2022/01/07 09:38:22;;;;;;;15.00;3.97;;;2.20;97.30;;;;;;4995588;28;21002;-91
2022/01/07 09:40:51;;;;;;;9.70;3.73;;;2.20;97.30;;;;;;4995136;28;20487;-91
2022/01/07 09:44:12;;;;;;;9.60;4.20;;;2.20;97.30;;;;;;4994040;28;20959;-91
2022/01/07 09:46:32;;;;;;;9.20;3.73;;;2.20;97.30;;;;;;4991474;28;20409;-92
2022/01/07 09:49:00;;;;;;;13.10;3.57;;;2.20;97.30;;;;;;4994420;28;20423;-91
2022/01/07 09:51:41;;;;;;;12.30;3.57;;;2.20;97.30;;;;;;4994070;28;20497;-90
2022/01/07 09:54:44;;;;;;;;;;;;;;;;;;;;;
2022/01/07 09:57:31;;;;;;;8.67;4.47;;;2.20;97.30;;;;;;4996564;28;20856;-90
2022/01/07 09:59:57;;;;;;;6.07;3.47;;;2.20;97.30;;;;;;5013072;23;20502;-83
2022/01/07 10:02:23;;;;;;;8.73;3.77;;;2.30;97.30;;;;;;5047996;28;20790;-83
2022/01/07 10:04:49;;;;;;;11.53;4.00;;;2.40;97.30;;;;;;5033231;28;20176;-84
2022/01/07 10:07:25;;;;;;;10.70;3.97;;;2.40;97.30;;;;;;5050790;28;20558;-84
2022/01/07 10:10:07;;;;;;;9.23;3.33;;;2.50;97.30;;;;;;5033643;28;20176;-83
2022/01/07 10:13:00;;;;;;;6.00;3.40;;;2.50;97.30;;;;;;5034507;28;20507;-84
2022/01/07 10:15:29;;;;;;;10.50;4.00;;;2.50;97.30;;;;;;5036416;28;20446;-84
2022/01/07 10:17:58;;;;;;;11.27;4.83;;;2.60;97.30;;;;;;5033295;28;20454;-84
2022/01/07 10:20:28;;;;;;;9.50;3.73;;;2.60;97.30;;;;;;5034513;28;20424;-84
2022/01/07 10:22:59;;;;;;;11.80;4.10;;;2.60;97.30;;;;;;5034756;28;20417;-83
2022/01/07 10:25:30;;;;;;;7.10;4.00;;;2.60;97.30;;;;;;5035603;28;20936;-84
2022/01/07 10:28:08;;;;;;;10.70;3.50;;;2.60;97.30;;;;;;5034857;28;20778;-83
2022/01/07 10:30:42;;;;;;;9.40;4.47;;;2.60;97.30;;;;;;5037246;28;20431;-82
2022/01/07 10:33:29;;;;;;;9.27;3.67;;;2.60;97.30;;;;;;5038135;28;20405;-83
2022/01/07 10:36:17;;;;;;;9.23;3.30;;;2.70;97.30;;;;;;5036255;28;20928;-83
2022/01/07 10:39:00;;;;;;;5.67;3.57;;;2.70;97.30;;;;;;5034904;28;20501;-83
2022/01/07 10:41:25;;;;;;;10.50;3.70;;;2.80;97.30;;;;;;5035752;28;20438;-84
2022/01/07 10:43:52;;;;;;;9.80;4.53;;;2.80;97.30;;;;;;5035270;28;20411;-84
2022/01/07 10:46:24;;;;;;;4.53;3.00;;;2.70;97.30;;;;;;5035323;28;20180;-83
2022/01/07 10:48:58;;;;;;;4.20;2.80;;;2.70;97.30;;;;;;5034157;28;20514;-83
2022/01/07 10:51:26;;;;;;;10.70;3.60;;;2.70;97.30;;;;;;5033585;28;20485;-83
2022/01/07 10:53:54;;;;;;;11.23;3.70;;;2.70;97.30;;;;;;5034170;28;20458;-84
2022/01/07 10:56:22;;;;;;;11.23;3.60;;;2.70;97.30;;;;;;5034036;28;20415;-83
2022/01/07 10:58:55;;;;;;;16.70;5.10;;;2.70;97.30;;;;;;5035299;28;21010;-83
2022/01/07 11:01:21;;;;;;;10.07;3.10;;;2.70;97.30;;;;;;5035353;28;20475;-83
2022/01/07 11:03:52;;;;;;;10.47;3.73;;;2.70;97.30;;;;;;5035425;28;20407;-81
2022/01/07 11:06:19;;;;;;;7.03;3.60;;;2.70;97.30;;;;;;5034067;28;20215;-83
2022/01/07 11:08:47;;;;;;;8.70;3.43;;;2.70;97.30;;;;;;5034399;28;20415;-83
2022/01/07 11:11:13;;;;;;;9.07;4.33;;;2.80;97.30;;;;;;5034885;28;20711;-84
2022/01/07 11:13:41;;;;;;;7.97;3.80;;;2.80;97.30;;;;;;5034901;28;20470;-84
2022/01/07 11:16:06;;;;;;;11.93;4.10;;;2.80;97.30;;;;;;5036082;28;20634;-83
2022/01/07 11:18:35;;;;;;;8.73;3.90;;;2.80;97.30;;;;;;5034769;28;20566;-83
2022/01/07 11:21:01;;;;;;;6.10;3.47;;;2.80;97.30;;;;;;5034897;28;20192;-83
2022/01/07 11:23:31;;;;;;;8.57;3.30;;;2.80;97.30;;;;;;5035353;28;20948;-83
2022/01/07 11:26:08;;;;;;;9.13;3.93;;;2.80;97.30;;;;;;5034537;28;20418;-84
2022/01/07 11:28:36;;;;;;;8.27;3.37;;;2.80;97.30;;;;;;5036094;28;20480;-83
2022/01/07 11:31:13;;;;;;;7.40;3.40;;;2.80;97.30;;;;;;5034211;28;20514;-83
2022/01/07 11:33:39;;;;;;;17.90;4.00;;;2.80;97.30;;;;;;5033972;28;20427;-83
2022/01/07 11:36:10;;;;;;;7.87;3.17;;;2.80;97.30;;;;;;5035026;28;20458;-82
2022/01/07 11:38:39;;;;;;;10.40;3.40;;;2.80;97.30;;;;;;5035163;28;20455;-83
2022/01/07 11:41:09;;;;;;;9.07;4.70;;;2.80;97.30;;;;;;5034037;28;20436;-84
2022/01/07 11:43:39;;;;;;;8.30;3.40;;;2.80;97.30;;;;;;5035812;28;20415;-84
2022/01/07 11:46:22;;;;;;;7.70;3.50;;;2.80;97.30;;;;;;5035289;28;20411;-83
2022/01/07 11:48:47;;;;;;;8.27;3.57;;;2.90;97.30;;;;;;5035381;28;20438;-83
2022/01/07 11:51:15;;;;;;;5.30;3.10;;;2.90;97.30;;;;;;5034793;28;20439;-82
2022/01/07 11:53:41;;;;;;;11.90;3.77;;;2.90;97.30;;;;;;5033865;28;20215;-83
2022/01/07 11:56:12;;;;;;;35.43;14.47;;;3.00;97.30;;;;;;5033806;28;20431;-83
2022/01/07 11:58:54;;;;;;;8.43;4.10;;;3.00;97.30;;;;;;5034681;28;20253;-83
2022/01/07 12:01:39;;;;;;;6.83;3.20;;;3.00;97.30;;;;;;5034451;28;20467;-83
2022/01/07 12:04:14;;;;;;;22.07;8.63;;;3.00;97.30;;;;;;5033701;28;20935;-83
2022/01/07 12:06:39;;;;;;;5.50;3.53;;;3.00;97.30;;;;;;5035577;28;20501;-83
2022/01/07 12:09:09;;;;;;;10.23;3.50;;;3.00;97.30;;;;;;5034897;28;20454;-83
2022/01/07 12:11:54;;;;;;;9.10;3.07;;;3.00;97.30;;;;;;5034805;28;20391;-83
2022/01/07 12:14:55;;;;;;;6.23;3.47;;;3.00;97.30;;;;;;5036547;28;20399;-83
2022/01/07 12:17:22;;;;;;;18.30;8.30;;;3.00;97.30;;;;;;5029444;28;20810;-84
2022/01/07 12:19:48;;;;;;;14.43;4.63;;;3.00;97.30;;;;;;5034695;28;20461;-83
2022/01/07 12:22:16;;;;;;;11.93;4.60;;;3.00;97.30;;;;;;5031583;28;20465;-83
2022/01/07 12:24:46;;;;;;;10.17;5.00;;;3.00;97.30;;;;;;5035461;28;20407;-83
2022/01/07 12:27:18;;;;;;;15.70;4.67;;;3.00;97.30;;;;;;5031363;28;20780;-83
2022/01/07 12:29:46;;;;;;;10.47;5.03;;;2.90;97.30;;;;;;5035993;28;20459;-82
2022/01/07 12:32:14;;;;;;;7.07;4.10;;;2.80;97.30;;;;;;5037227;28;20936;-83
2022/01/07 12:34:45;;;;;;;8.30;2.80;;;2.80;97.30;;;;;;5034507;28;20411;-81
2022/01/07 12:37:17;;;;;;;8.90;3.80;;;2.70;97.30;;;;;;5048548;28;20465;-83
2022/01/07 12:39:46;;;;;;;10.33;3.47;;;2.60;97.30;;;;;;5031422;28;21059;-83
2022/01/07 12:42:12;;;;;;;7.00;3.40;;;2.60;97.30;;;;;;5025650;28;20965;-82
2022/01/07 12:44:40;;;;;;;6.67;3.17;;;2.50;97.30;;;;;;5024001;28;20793;-82
2022/01/07 12:47:07;;;;;;;8.40;3.70;;;2.40;97.30;;;;;;5028913;28;20422;-83
2022/01/07 12:49:38;;;;;;;9.63;3.60;;;2.40;97.30;;;;;;5036300;28;20419;-83
2022/01/07 12:52:09;;;;;;;6.30;3.23;;;2.30;97.30;;;;;;5036310;28;20446;-81
2022/01/07 12:54:35;;;;;;;36.80;15.50;;;2.30;97.30;;;;;;5035947;28;20430;-81
2022/01/07 12:57:02;;;;;;;7.63;3.33;;;2.30;97.30;;;;;;5035826;28;20431;-81
2022/01/07 12:59:29;;;;;;;20.93;4.80;;;2.20;97.30;;;;;;5016037;28;20883;-82
2022/01/07 13:01:55;;;;;;;6.97;3.37;;;2.20;97.30;;;;;;5022148;28;20459;-81
2022/01/07 13:04:22;;;;;;;11.50;4.30;;;2.20;97.30;;;;;;5037041;28;20464;-81
2022/01/07 13:06:51;;;;;;;10.93;3.57;;;2.20;97.30;;;;;;5036653;28;20411;-81